sensor_id;sensor_type;location;lat;lon;timestamp;P1;durP1;ratioP1;P2;durP2;ratioP2
21030;SDS011;61072;47.808;7.636;2023-08-17T00:01:35;5.78;;;4.95;;
21030;SDS011;61072;47.808;7.636;2023-08-17T00:04:02;5.82;;;4.78;;
21030;SDS011;61072;47.808;7.636;2023-08-17T00:06:28;5.45;;;4.88;;
21030;SDS011;61072;47.808;7.636;2023-08-17T00:08:55;7.78;;;4.43;;
21030;SDS011;61072;47.808;7.636;2023-08-17T00:11:22;6.60;;;5.50;;
21030;SDS011;61072;47.808;7.636;2023-08-17T00:13:49;6.22;;;4.68;;
21030;SDS011;61072;47.808;7.636;2023-08-17T00:16:16;8.15;;;5.38;;
21030;SDS011;61072;47.808;7.636;2023-08-17T00:18:43;7.03;;;5.13;;
21030;SDS011;61072;47.808;7.636;2023-08-17T00:21:10;8.45;;;5.75;;
21030;SDS011;61072;47.808;7.636;2023-08-17T00:23:37;6.68;;;5.43;;
21030;SDS011;61072;47.808;7.636;2023-08-17T00:26:04;8.45;;;5.80;;
21030;SDS011;61072;47.808;7.636;2023-08-17T00:28:31;7.88;;;5.30;;
21030;SDS011;61072;47.808;7.636;2023-08-17T00:30:59;7.70;;;4.97;;
21030;SDS011;61072;47.808;7.636;2023-08-17T00:33:26;7.75;;;4.97;;
21030;SDS011;61072;47.808;7.636;2023-08-17T00:35:53;7.82;;;5.55;;
21030;SDS011;61072;47.808;7.636;2023-08-17T00:38:20;8.63;;;5.85;;
21030;SDS011;61072;47.808;7.636;2023-08-17T00:40:47;5.70;;;5.15;;
21030;SDS011;61072;47.808;7.636;2023-08-17T00:43:14;7.75;;;5.82;;
21030;SDS011;61072;47.808;7.636;2023-08-17T00:45:41;5.43;;;4.90;;
21030;SDS011;61072;47.808;7.636;2023-08-17T00:48:08;8.13;;;5.22;;
21030;SDS011;61072;47.808;7.636;2023-08-17T00:50:35;6.82;;;5.47;;
21030;SDS011;61072;47.808;7.636;2023-08-17T00:53:03;9.38;;;5.32;;
21030;SDS011;61072;47.808;7.636;2023-08-17T00:55:30;7.82;;;5.25;;
21030;SDS011;61072;47.808;7.636;2023-08-17T00:57:58;8.02;;;4.93;;
21030;SDS011;61072;47.808;7.636;2023-08-17T01:00:26;8.75;;;5.18;;
21030;SDS011;61072;47.808;7.636;2023-08-17T01:02:54;7.60;;;5.05;;
21030;SDS011;61072;47.808;7.636;2023-08-17T01:05:22;9.00;;;5.40;;
21030;SDS011;61072;47.808;7.636;2023-08-17T01:07:49;6.93;;;5.28;;
21030;SDS011;61072;47.808;7.636;2023-08-17T01:10:16;7.68;;;5.80;;
21030;SDS011;61072;47.808;7.636;2023-08-17T01:13:01;8.40;;;5.25;;
21030;SDS011;61072;47.808;7.636;2023-08-17T01:15:40;7.85;;;6.18;;
21030;SDS011;61072;47.808;7.636;2023-08-17T01:18:29;8.65;;;6.38;;
21030;SDS011;61072;47.808;7.636;2023-08-17T01:21:01;7.97;;;5.25;;
21030;SDS011;61072;47.808;7.636;2023-08-17T01:23:29;9.45;;;5.03;;
21030;SDS011;61072;47.808;7.636;2023-08-17T01:25:56;8.65;;;5.47;;
21030;SDS011;61072;47.808;7.636;2023-08-17T01:28:23;7.75;;;5.80;;
21030;SDS011;61072;47.808;7.636;2023-08-17T01:30:57;7.78;;;5.07;;
21030;SDS011;61072;47.808;7.636;2023-08-17T01:36:33;9.02;;;5.10;;
21030;SDS011;61072;47.808;7.636;2023-08-17T01:39:03;7.20;;;4.75;;
21030;SDS011;61072;47.808;7.636;2023-08-17T01:41:31;5.78;;;4.60;;
21030;SDS011;61072;47.808;7.636;2023-08-17T01:43:59;7.30;;;5.10;;
21030;SDS011;61072;47.808;7.636;2023-08-17T01:46:30;6.80;;;5.53;;
21030;SDS011;61072;47.808;7.636;2023-08-17T01:48:58;7.78;;;5.38;;
21030;SDS011;61072;47.808;7.636;2023-08-17T01:51:25;7.38;;;4.97;;
21030;SDS011;61072;47.808;7.636;2023-08-17T01:53:52;5.80;;;5.07;;
21030;SDS011;61072;47.808;7.636;2023-08-17T01:56:19;6.10;;;4.88;;
21030;SDS011;61072;47.808;7.636;2023-08-17T01:58:45;5.90;;;4.63;;
21030;SDS011;61072;47.808;7.636;2023-08-17T02:01:12;8.48;;;5.20;;
21030;SDS011;61072;47.808;7.636;2023-08-17T02:03:39;9.38;;;5.43;;
21030;SDS011;61072;47.808;7.636;2023-08-17T02:06:06;6.22;;;5.10;;
21030;SDS011;61072;47.808;7.636;2023-08-17T02:08:33;8.07;;;4.80;;
21030;SDS011;61072;47.808;7.636;2023-08-17T02:11:00;6.22;;;5.00;;
21030;SDS011;61072;47.808;7.636;2023-08-17T02:13:27;9.15;;;6.13;;
21030;SDS011;61072;47.808;7.636;2023-08-17T02:15:53;9.95;;;7.72;;
21030;SDS011;61072;47.808;7.636;2023-08-17T02:18:20;8.27;;;7.25;;
21030;SDS011;61072;47.808;7.636;2023-08-17T02:20:47;11.48;;;6.90;;
21030;SDS011;61072;47.808;7.636;2023-08-17T02:23:14;8.15;;;6.65;;
21030;SDS011;61072;47.808;7.636;2023-08-17T02:25:41;7.82;;;7.03;;
21030;SDS011;61072;47.808;7.636;2023-08-17T02:28:07;8.82;;;7.93;;
21030;SDS011;61072;47.808;7.636;2023-08-17T02:30:34;9.52;;;6.90;;
21030;SDS011;61072;47.808;7.636;2023-08-17T02:33:01;9.80;;;8.07;;
21030;SDS011;61072;47.808;7.636;2023-08-17T02:35:28;16.70;;;10.02;;
21030;SDS011;61072;47.808;7.636;2023-08-17T02:37:55;9.13;;;7.70;;
21030;SDS011;61072;47.808;7.636;2023-08-17T02:40:22;7.88;;;6.65;;
21030;SDS011;61072;47.808;7.636;2023-08-17T02:42:50;9.85;;;7.65;;
21030;SDS011;61072;47.808;7.636;2023-08-17T02:45:16;10.02;;;6.22;;
21030;SDS011;61072;47.808;7.636;2023-08-17T02:47:43;8.10;;;6.18;;
21030;SDS011;61072;47.808;7.636;2023-08-17T02:50:10;7.80;;;7.00;;
21030;SDS011;61072;47.808;7.636;2023-08-17T02:52:37;10.75;;;7.38;;
21030;SDS011;61072;47.808;7.636;2023-08-17T02:55:04;12.15;;;8.32;;
21030;SDS011;61072;47.808;7.636;2023-08-17T02:57:31;10.30;;;8.55;;
21030;SDS011;61072;47.808;7.636;2023-08-17T02:59:57;9.90;;;8.63;;
21030;SDS011;61072;47.808;7.636;2023-08-17T03:02:24;9.57;;;8.40;;
21030;SDS011;61072;47.808;7.636;2023-08-17T03:04:51;9.60;;;8.50;;
21030;SDS011;61072;47.808;7.636;2023-08-17T03:07:18;10.10;;;7.68;;
21030;SDS011;61072;47.808;7.636;2023-08-17T03:09:44;11.60;;;9.05;;
21030;SDS011;61072;47.808;7.636;2023-08-17T03:12:11;11.27;;;9.23;;
21030;SDS011;61072;47.808;7.636;2023-08-17T03:14:38;14.93;;;9.30;;
21030;SDS011;61072;47.808;7.636;2023-08-17T03:17:05;10.35;;;9.25;;
21030;SDS011;61072;47.808;7.636;2023-08-17T03:19:31;10.95;;;9.35;;
21030;SDS011;61072;47.808;7.636;2023-08-17T03:21:58;13.07;;;8.98;;
21030;SDS011;61072;47.808;7.636;2023-08-17T03:24:25;13.15;;;8.65;;
21030;SDS011;61072;47.808;7.636;2023-08-17T03:26:52;9.68;;;8.55;;
21030;SDS011;61072;47.808;7.636;2023-08-17T03:29:19;10.00;;;7.43;;
21030;SDS011;61072;47.808;7.636;2023-08-17T03:31:45;7.55;;;6.82;;
21030;SDS011;61072;47.808;7.636;2023-08-17T03:34:12;9.63;;;7.32;;
21030;SDS011;61072;47.808;7.636;2023-08-17T03:36:39;8.88;;;7.97;;
21030;SDS011;61072;47.808;7.636;2023-08-17T03:39:05;12.88;;;8.77;;
21030;SDS011;61072;47.808;7.636;2023-08-17T03:41:32;10.77;;;9.07;;
21030;SDS011;61072;47.808;7.636;2023-08-17T03:43:59;13.55;;;8.88;;
21030;SDS011;61072;47.808;7.636;2023-08-17T03:46:26;12.55;;;8.43;;
21030;SDS011;61072;47.808;7.636;2023-08-17T03:48:53;15.50;;;9.88;;
21030;SDS011;61072;47.808;7.636;2023-08-17T03:51:20;10.52;;;8.02;;
21030;SDS011;61072;47.808;7.636;2023-08-17T03:53:47;16.23;;;9.80;;
21030;SDS011;61072;47.808;7.636;2023-08-17T03:56:13;13.68;;;9.50;;
21030;SDS011;61072;47.808;7.636;2023-08-17T03:58:40;13.55;;;10.00;;
21030;SDS011;61072;47.808;7.636;2023-08-17T04:01:08;14.38;;;10.27;;
21030;SDS011;61072;47.808;7.636;2023-08-17T04:03:35;11.82;;;9.98;;
21030;SDS011;61072;47.808;7.636;2023-08-17T04:06:06;13.18;;;10.07;;
21030;SDS011;61072;47.808;7.636;2023-08-17T04:08:33;12.73;;;10.15;;
21030;SDS011;61072;47.808;7.636;2023-08-17T04:11:00;10.77;;;9.68;;
21030;SDS011;61072;47.808;7.636;2023-08-17T04:13:26;14.57;;;10.98;;
21030;SDS011;61072;47.808;7.636;2023-08-17T04:15:53;12.60;;;9.80;;
21030;SDS011;61072;47.808;7.636;2023-08-17T04:18:20;14.18;;;9.80;;
21030;SDS011;61072;47.808;7.636;2023-08-17T04:20:47;15.40;;;9.80;;
21030;SDS011;61072;47.808;7.636;2023-08-17T04:23:14;15.85;;;11.20;;
21030;SDS011;61072;47.808;7.636;2023-08-17T04:25:41;13.23;;;10.98;;
21030;SDS011;61072;47.808;7.636;2023-08-17T04:28:09;14.75;;;11.68;;
21030;SDS011;61072;47.808;7.636;2023-08-17T04:30:37;12.82;;;10.60;;
21030;SDS011;61072;47.808;7.636;2023-08-17T04:33:04;16.92;;;11.10;;
21030;SDS011;61072;47.808;7.636;2023-08-17T04:35:31;15.48;;;11.57;;
21030;SDS011;61072;47.808;7.636;2023-08-17T04:37:58;16.48;;;12.00;;
21030;SDS011;61072;47.808;7.636;2023-08-17T04:40:24;16.60;;;11.85;;
21030;SDS011;61072;47.808;7.636;2023-08-17T04:42:51;17.10;;;14.30;;
21030;SDS011;61072;47.808;7.636;2023-08-17T04:45:18;19.35;;;15.07;;
21030;SDS011;61072;47.808;7.636;2023-08-17T04:47:45;19.38;;;13.70;;
21030;SDS011;61072;47.808;7.636;2023-08-17T04:50:11;22.17;;;13.88;;
21030;SDS011;61072;47.808;7.636;2023-08-17T04:52:43;20.95;;;14.82;;
21030;SDS011;61072;47.808;7.636;2023-08-17T04:55:10;23.40;;;14.73;;
21030;SDS011;61072;47.808;7.636;2023-08-17T04:57:37;23.05;;;16.15;;
21030;SDS011;61072;47.808;7.636;2023-08-17T05:00:05;19.85;;;15.55;;
21030;SDS011;61072;47.808;7.636;2023-08-17T05:02:35;24.25;;;16.45;;
21030;SDS011;61072;47.808;7.636;2023-08-17T05:05:04;22.60;;;15.02;;
21030;SDS011;61072;47.808;7.636;2023-08-17T05:07:32;25.27;;;17.40;;
21030;SDS011;61072;47.808;7.636;2023-08-17T05:09:59;29.20;;;17.10;;
21030;SDS011;61072;47.808;7.636;2023-08-17T05:12:27;26.90;;;18.23;;
21030;SDS011;61072;47.808;7.636;2023-08-17T05:14:53;28.80;;;17.02;;
21030;SDS011;61072;47.808;7.636;2023-08-17T05:17:20;31.75;;;17.15;;
21030;SDS011;61072;47.808;7.636;2023-08-17T05:19:47;28.17;;;17.55;;
21030;SDS011;61072;47.808;7.636;2023-08-17T05:22:14;22.98;;;15.80;;
21030;SDS011;61072;47.808;7.636;2023-08-17T05:24:41;25.73;;;17.80;;
21030;SDS011;61072;47.808;7.636;2023-08-17T05:27:07;28.38;;;17.30;;
21030;SDS011;61072;47.808;7.636;2023-08-17T05:29:34;31.75;;;18.23;;
21030;SDS011;61072;47.808;7.636;2023-08-17T05:32:01;32.47;;;18.70;;
21030;SDS011;61072;47.808;7.636;2023-08-17T05:34:28;42.65;;;19.05;;
21030;SDS011;61072;47.808;7.636;2023-08-17T05:36:54;44.95;;;19.20;;
21030;SDS011;61072;47.808;7.636;2023-08-17T05:39:21;35.78;;;18.05;;
21030;SDS011;61072;47.808;7.636;2023-08-17T05:41:48;31.67;;;18.65;;
21030;SDS011;61072;47.808;7.636;2023-08-17T05:44:15;34.53;;;18.23;;
21030;SDS011;61072;47.808;7.636;2023-08-17T05:46:41;27.60;;;17.65;;
21030;SDS011;61072;47.808;7.636;2023-08-17T05:49:08;21.45;;;15.50;;
21030;SDS011;61072;47.808;7.636;2023-08-17T05:51:35;33.55;;;16.08;;
21030;SDS011;61072;47.808;7.636;2023-08-17T05:54:02;22.33;;;14.95;;
21030;SDS011;61072;47.808;7.636;2023-08-17T05:56:29;21.20;;;14.60;;
21030;SDS011;61072;47.808;7.636;2023-08-17T05:58:56;18.73;;;13.93;;
21030;SDS011;61072;47.808;7.636;2023-08-17T06:01:22;23.02;;;14.07;;
21030;SDS011;61072;47.808;7.636;2023-08-17T06:03:49;19.23;;;13.80;;
21030;SDS011;61072;47.808;7.636;2023-08-17T06:06:16;14.60;;;11.27;;
21030;SDS011;61072;47.808;7.636;2023-08-17T06:08:43;14.90;;;10.88;;
21030;SDS011;61072;47.808;7.636;2023-08-17T06:11:09;14.05;;;9.93;;
21030;SDS011;61072;47.808;7.636;2023-08-17T06:13:36;12.75;;;9.98;;
21030;SDS011;61072;47.808;7.636;2023-08-17T06:16:03;13.32;;;10.52;;
21030;SDS011;61072;47.808;7.636;2023-08-17T06:18:30;13.95;;;11.30;;
21030;SDS011;61072;47.808;7.636;2023-08-17T06:20:57;13.82;;;10.30;;
21030;SDS011;61072;47.808;7.636;2023-08-17T06:23:23;11.52;;;10.02;;
21030;SDS011;61072;47.808;7.636;2023-08-17T06:25:50;12.77;;;9.98;;
21030;SDS011;61072;47.808;7.636;2023-08-17T06:28:17;16.48;;;10.25;;
21030;SDS011;61072;47.808;7.636;2023-08-17T06:30:44;11.48;;;9.23;;
21030;SDS011;61072;47.808;7.636;2023-08-17T06:33:11;12.88;;;8.43;;
21030;SDS011;61072;47.808;7.636;2023-08-17T06:35:38;10.68;;;7.90;;
21030;SDS011;61072;47.808;7.636;2023-08-17T06:38:04;11.43;;;9.63;;
21030;SDS011;61072;47.808;7.636;2023-08-17T06:40:32;11.45;;;9.70;;
21030;SDS011;61072;47.808;7.636;2023-08-17T06:42:59;11.38;;;9.63;;
21030;SDS011;61072;47.808;7.636;2023-08-17T06:45:26;14.57;;;9.30;;
21030;SDS011;61072;47.808;7.636;2023-08-17T06:47:52;11.48;;;9.25;;
21030;SDS011;61072;47.808;7.636;2023-08-17T06:50:19;11.35;;;8.73;;
21030;SDS011;61072;47.808;7.636;2023-08-17T06:52:46;12.40;;;9.13;;
21030;SDS011;61072;47.808;7.636;2023-08-17T06:55:13;13.77;;;9.15;;
21030;SDS011;61072;47.808;7.636;2023-08-17T06:57:40;10.40;;;7.82;;
21030;SDS011;61072;47.808;7.636;2023-08-17T07:00:07;11.30;;;8.25;;
21030;SDS011;61072;47.808;7.636;2023-08-17T07:02:34;12.77;;;9.13;;
21030;SDS011;61072;47.808;7.636;2023-08-17T07:05:17;11.05;;;7.95;;
21030;SDS011;61072;47.808;7.636;2023-08-17T07:07:44;9.32;;;7.80;;
21030;SDS011;61072;47.808;7.636;2023-08-17T07:10:11;11.20;;;8.48;;
21030;SDS011;61072;47.808;7.636;2023-08-17T07:12:38;12.43;;;8.77;;
21030;SDS011;61072;47.808;7.636;2023-08-17T07:15:05;10.02;;;7.60;;
21030;SDS011;61072;47.808;7.636;2023-08-17T07:17:33;8.07;;;7.28;;
21030;SDS011;61072;47.808;7.636;2023-08-17T07:22:33;8.90;;;6.38;;
21030;SDS011;61072;47.808;7.636;2023-08-17T07:25:01;8.23;;;6.57;;
21030;SDS011;61072;47.808;7.636;2023-08-17T07:27:27;8.45;;;7.43;;
21030;SDS011;61072;47.808;7.636;2023-08-17T07:29:55;10.70;;;6.95;;
21030;SDS011;61072;47.808;7.636;2023-08-17T07:32:22;10.73;;;7.60;;
21030;SDS011;61072;47.808;7.636;2023-08-17T07:34:48;7.85;;;6.95;;
21030;SDS011;61072;47.808;7.636;2023-08-17T07:37:15;9.73;;;6.90;;
21030;SDS011;61072;47.808;7.636;2023-08-17T07:39:42;9.80;;;7.18;;
21030;SDS011;61072;47.808;7.636;2023-08-17T07:42:09;9.52;;;8.02;;
21030;SDS011;61072;47.808;7.636;2023-08-17T07:44:35;11.45;;;8.77;;
21030;SDS011;61072;47.808;7.636;2023-08-17T07:47:02;10.25;;;8.00;;
21030;SDS011;61072;47.808;7.636;2023-08-17T07:49:29;11.63;;;8.32;;
21030;SDS011;61072;47.808;7.636;2023-08-17T07:51:58;10.65;;;8.95;;
21030;SDS011;61072;47.808;7.636;2023-08-17T07:54:25;9.82;;;7.85;;
21030;SDS011;61072;47.808;7.636;2023-08-17T07:56:52;9.82;;;8.48;;
21030;SDS011;61072;47.808;7.636;2023-08-17T07:59:19;15.30;;;9.38;;
21030;SDS011;61072;47.808;7.636;2023-08-17T08:01:46;14.57;;;9.88;;
21030;SDS011;61072;47.808;7.636;2023-08-17T08:04:12;12.85;;;9.45;;
21030;SDS011;61072;47.808;7.636;2023-08-17T08:06:39;10.80;;;8.93;;
21030;SDS011;61072;47.808;7.636;2023-08-17T08:09:06;11.82;;;9.05;;
21030;SDS011;61072;47.808;7.636;2023-08-17T08:11:33;12.15;;;8.80;;
21030;SDS011;61072;47.808;7.636;2023-08-17T08:14:00;11.18;;;9.07;;
21030;SDS011;61072;47.808;7.636;2023-08-17T08:16:27;11.50;;;8.25;;
21030;SDS011;61072;47.808;7.636;2023-08-17T08:18:57;11.50;;;8.48;;
21030;SDS011;61072;47.808;7.636;2023-08-17T08:21:24;11.38;;;8.45;;
21030;SDS011;61072;47.808;7.636;2023-08-17T08:23:50;10.98;;;8.30;;
21030;SDS011;61072;47.808;7.636;2023-08-17T08:26:17;10.27;;;7.97;;
21030;SDS011;61072;47.808;7.636;2023-08-17T08:28:44;9.80;;;8.40;;
21030;SDS011;61072;47.808;7.636;2023-08-17T08:31:11;11.35;;;8.48;;
21030;SDS011;61072;47.808;7.636;2023-08-17T08:33:38;11.32;;;8.75;;
21030;SDS011;61072;47.808;7.636;2023-08-17T08:36:05;10.23;;;8.23;;
21030;SDS011;61072;47.808;7.636;2023-08-17T08:38:34;12.93;;;8.93;;
21030;SDS011;61072;47.808;7.636;2023-08-17T08:41:01;11.98;;;8.70;;
21030;SDS011;61072;47.808;7.636;2023-08-17T08:43:29;12.02;;;8.50;;
21030;SDS011;61072;47.808;7.636;2023-08-17T08:45:57;13.63;;;8.90;;
21030;SDS011;61072;47.808;7.636;2023-08-17T08:48:26;13.48;;;8.80;;
21030;SDS011;61072;47.808;7.636;2023-08-17T08:50:54;8.50;;;7.45;;
21030;SDS011;61072;47.808;7.636;2023-08-17T08:53:24;12.60;;;7.72;;
21030;SDS011;61072;47.808;7.636;2023-08-17T08:56:01;10.20;;;7.50;;
21030;SDS011;61072;47.808;7.636;2023-08-17T08:58:31;14.93;;;8.43;;
21030;SDS011;61072;47.808;7.636;2023-08-17T09:00:59;11.60;;;7.93;;
21030;SDS011;61072;47.808;7.636;2023-08-17T09:03:27;10.95;;;8.13;;
21030;SDS011;61072;47.808;7.636;2023-08-17T09:05:55;13.60;;;8.55;;
21030;SDS011;61072;47.808;7.636;2023-08-17T09:08:27;11.95;;;9.15;;
21030;SDS011;61072;47.808;7.636;2023-08-17T09:10:55;12.35;;;8.18;;
21030;SDS011;61072;47.808;7.636;2023-08-17T09:13:22;14.07;;;8.32;;
21030;SDS011;61072;47.808;7.636;2023-08-17T09:15:49;14.15;;;9.23;;
21030;SDS011;61072;47.808;7.636;2023-08-17T09:18:16;10.48;;;8.05;;
21030;SDS011;61072;47.808;7.636;2023-08-17T09:20:44;13.30;;;9.15;;
21030;SDS011;61072;47.808;7.636;2023-08-17T09:23:15;12.30;;;9.20;;
21030;SDS011;61072;47.808;7.636;2023-08-17T09:25:43;13.82;;;9.07;;
21030;SDS011;61072;47.808;7.636;2023-08-17T09:28:15;10.27;;;7.65;;
21030;SDS011;61072;47.808;7.636;2023-08-17T09:30:56;13.25;;;6.88;;
21030;SDS011;61072;47.808;7.636;2023-08-17T09:33:25;13.02;;;8.18;;
21030;SDS011;61072;47.808;7.636;2023-08-17T09:35:54;10.20;;;7.95;;
21030;SDS011;61072;47.808;7.636;2023-08-17T09:38:25;11.95;;;7.93;;
21030;SDS011;61072;47.808;7.636;2023-08-17T09:40:53;13.55;;;7.25;;
21030;SDS011;61072;47.808;7.636;2023-08-17T09:43:20;13.48;;;7.93;;
21030;SDS011;61072;47.808;7.636;2023-08-17T09:45:47;8.52;;;6.75;;
21030;SDS011;61072;47.808;7.636;2023-08-17T09:48:18;12.38;;;7.15;;
21030;SDS011;61072;47.808;7.636;2023-08-17T09:50:46;8.50;;;6.60;;
21030;SDS011;61072;47.808;7.636;2023-08-17T09:53:15;8.25;;;6.07;;
21030;SDS011;61072;47.808;7.636;2023-08-17T09:55:43;11.35;;;6.15;;
21030;SDS011;61072;47.808;7.636;2023-08-17T09:58:10;7.07;;;5.90;;
21030;SDS011;61072;47.808;7.636;2023-08-17T10:00:45;8.45;;;5.65;;
21030;SDS011;61072;47.808;7.636;2023-08-17T10:03:17;9.00;;;6.20;;
21030;SDS011;61072;47.808;7.636;2023-08-17T10:05:47;10.80;;;5.55;;
21030;SDS011;61072;47.808;7.636;2023-08-17T10:08:22;8.02;;;5.55;;
21030;SDS011;61072;47.808;7.636;2023-08-17T10:10:49;6.18;;;4.55;;
21030;SDS011;61072;47.808;7.636;2023-08-17T10:16:06;4.45;;;3.60;;
21030;SDS011;61072;47.808;7.636;2023-08-17T10:18:52;5.75;;;3.72;;
21030;SDS011;61072;47.808;7.636;2023-08-17T10:24:02;5.25;;;3.55;;
21030;SDS011;61072;47.808;7.636;2023-08-17T10:26:29;6.68;;;3.53;;
21030;SDS011;61072;47.808;7.636;2023-08-17T10:28:57;5.63;;;2.88;;
21030;SDS011;61072;47.808;7.636;2023-08-17T10:31:33;4.38;;;3.10;;
21030;SDS011;61072;47.808;7.636;2023-08-17T10:34:01;5.32;;;3.28;;
21030;SDS011;61072;47.808;7.636;2023-08-17T10:36:29;3.50;;;3.00;;
21030;SDS011;61072;47.808;7.636;2023-08-17T10:41:47;5.60;;;3.70;;
21030;SDS011;61072;47.808;7.636;2023-08-17T10:44:16;5.28;;;2.97;;
21030;SDS011;61072;47.808;7.636;2023-08-17T10:46:44;7.30;;;2.67;;
21030;SDS011;61072;47.808;7.636;2023-08-17T10:49:25;4.93;;;2.90;;
21030;SDS011;61072;47.808;7.636;2023-08-17T10:54:38;7.30;;;3.75;;
21030;SDS011;61072;47.808;7.636;2023-08-17T10:57:24;3.60;;;3.08;;
21030;SDS011;61072;47.808;7.636;2023-08-17T11:02:44;3.95;;;3.05;;
21030;SDS011;61072;47.808;7.636;2023-08-17T11:13:31;4.25;;;3.55;;
21030;SDS011;61072;47.808;7.636;2023-08-17T11:16:02;6.53;;;3.95;;
21030;SDS011;61072;47.808;7.636;2023-08-17T11:18:31;6.53;;;3.53;;
21030;SDS011;61072;47.808;7.636;2023-08-17T11:20:58;3.85;;;3.42;;
21030;SDS011;61072;47.808;7.636;2023-08-17T11:23:28;6.25;;;3.20;;
21030;SDS011;61072;47.808;7.636;2023-08-17T11:25:56;9.90;;;3.70;;
21030;SDS011;61072;47.808;7.636;2023-08-17T11:28:23;4.47;;;2.90;;
21030;SDS011;61072;47.808;7.636;2023-08-17T11:30:57;5.40;;;3.05;;
21030;SDS011;61072;47.808;7.636;2023-08-17T11:33:25;6.00;;;3.17;;
21030;SDS011;61072;47.808;7.636;2023-08-17T11:35:56;5.53;;;3.22;;
21030;SDS011;61072;47.808;7.636;2023-08-17T11:38:30;6.40;;;2.85;;
21030;SDS011;61072;47.808;7.636;2023-08-17T11:41:00;3.85;;;2.60;;
21030;SDS011;61072;47.808;7.636;2023-08-17T11:43:29;2.65;;;2.00;;
21030;SDS011;61072;47.808;7.636;2023-08-17T11:45:56;5.20;;;2.72;;
21030;SDS011;61072;47.808;7.636;2023-08-17T11:48:23;9.02;;;2.80;;
21030;SDS011;61072;47.808;7.636;2023-08-17T11:50:51;5.88;;;2.63;;
21030;SDS011;61072;47.808;7.636;2023-08-17T11:53:18;5.60;;;2.55;;
21030;SDS011;61072;47.808;7.636;2023-08-17T11:55:45;6.88;;;2.60;;
21030;SDS011;61072;47.808;7.636;2023-08-17T11:58:12;6.00;;;3.53;;
21030;SDS011;61072;47.808;7.636;2023-08-17T12:00:42;6.43;;;2.38;;
21030;SDS011;61072;47.808;7.636;2023-08-17T12:03:13;7.38;;;2.55;;
21030;SDS011;61072;47.808;7.636;2023-08-17T12:05:43;6.80;;;2.73;;
21030;SDS011;61072;47.808;7.636;2023-08-17T12:08:12;7.93;;;2.63;;
21030;SDS011;61072;47.808;7.636;2023-08-17T12:10:40;7.55;;;2.78;;
21030;SDS011;61072;47.808;7.636;2023-08-17T12:13:10;7.00;;;2.72;;
21030;SDS011;61072;47.808;7.636;2023-08-17T12:15:37;4.95;;;3.00;;
21030;SDS011;61072;47.808;7.636;2023-08-17T12:18:04;8.52;;;2.53;;
21030;SDS011;61072;47.808;7.636;2023-08-17T12:20:34;4.03;;;2.42;;
21030;SDS011;61072;47.808;7.636;2023-08-17T12:23:04;7.35;;;3.00;;
21030;SDS011;61072;47.808;7.636;2023-08-17T12:25:31;9.35;;;2.47;;
21030;SDS011;61072;47.808;7.636;2023-08-17T12:27:58;5.75;;;2.72;;
21030;SDS011;61072;47.808;7.636;2023-08-17T12:30:30;6.15;;;2.50;;
21030;SDS011;61072;47.808;7.636;2023-08-17T12:32:58;7.03;;;3.10;;
21030;SDS011;61072;47.808;7.636;2023-08-17T12:35:25;6.47;;;2.92;;
21030;SDS011;61072;47.808;7.636;2023-08-17T12:37:53;5.88;;;3.13;;
21030;SDS011;61072;47.808;7.636;2023-08-17T12:40:20;5.53;;;2.60;;
21030;SDS011;61072;47.808;7.636;2023-08-17T12:42:48;6.65;;;2.65;;
21030;SDS011;61072;47.808;7.636;2023-08-17T12:45:15;4.53;;;2.83;;
21030;SDS011;61072;47.808;7.636;2023-08-17T12:47:42;8.82;;;2.90;;
21030;SDS011;61072;47.808;7.636;2023-08-17T12:50:09;5.10;;;2.80;;
21030;SDS011;61072;47.808;7.636;2023-08-17T12:52:36;4.60;;;2.60;;
21030;SDS011;61072;47.808;7.636;2023-08-17T12:55:03;7.05;;;2.75;;
21030;SDS011;61072;47.808;7.636;2023-08-17T12:57:30;4.45;;;2.90;;
21030;SDS011;61072;47.808;7.636;2023-08-17T12:59:57;3.25;;;2.78;;
21030;SDS011;61072;47.808;7.636;2023-08-17T13:02:24;5.88;;;3.90;;
21030;SDS011;61072;47.808;7.636;2023-08-17T13:04:51;6.30;;;3.45;;
21030;SDS011;61072;47.808;7.636;2023-08-17T13:07:18;8.82;;;2.55;;
21030;SDS011;61072;47.808;7.636;2023-08-17T13:09:45;6.88;;;2.78;;
21030;SDS011;61072;47.808;7.636;2023-08-17T13:12:12;5.00;;;2.70;;
21030;SDS011;61072;47.808;7.636;2023-08-17T13:14:39;5.05;;;2.80;;
21030;SDS011;61072;47.808;7.636;2023-08-17T13:17:06;8.35;;;2.47;;
21030;SDS011;61072;47.808;7.636;2023-08-17T13:19:33;12.80;;;3.38;;
21030;SDS011;61072;47.808;7.636;2023-08-17T13:22:00;7.28;;;2.97;;
21030;SDS011;61072;47.808;7.636;2023-08-17T13:24:28;7.55;;;2.42;;
21030;SDS011;61072;47.808;7.636;2023-08-17T13:26:55;4.03;;;2.53;;
21030;SDS011;61072;47.808;7.636;2023-08-17T13:29:23;4.68;;;2.28;;
21030;SDS011;61072;47.808;7.636;2023-08-17T13:31:50;6.85;;;2.80;;
21030;SDS011;61072;47.808;7.636;2023-08-17T13:34:17;8.68;;;3.67;;
21030;SDS011;61072;47.808;7.636;2023-08-17T13:36:44;4.32;;;1.95;;
21030;SDS011;61072;47.808;7.636;2023-08-17T13:39:11;7.57;;;2.72;;
21030;SDS011;61072;47.808;7.636;2023-08-17T13:41:37;5.30;;;1.98;;
21030;SDS011;61072;47.808;7.636;2023-08-17T13:44:04;6.75;;;1.95;;
21030;SDS011;61072;47.808;7.636;2023-08-17T13:46:31;6.45;;;2.60;;
21030;SDS011;61072;47.808;7.636;2023-08-17T13:48:58;7.80;;;2.20;;
21030;SDS011;61072;47.808;7.636;2023-08-17T13:51:25;7.80;;;2.40;;
21030;SDS011;61072;47.808;7.636;2023-08-17T13:53:52;5.03;;;1.85;;
21030;SDS011;61072;47.808;7.636;2023-08-17T13:56:18;6.03;;;3.38;;
21030;SDS011;61072;47.808;7.636;2023-08-17T13:58:45;5.53;;;1.95;;
21030;SDS011;61072;47.808;7.636;2023-08-17T14:01:12;6.18;;;1.85;;
21030;SDS011;61072;47.808;7.636;2023-08-17T14:03:40;7.38;;;2.47;;
21030;SDS011;61072;47.808;7.636;2023-08-17T14:06:09;5.32;;;2.33;;
21030;SDS011;61072;47.808;7.636;2023-08-17T14:08:36;11.85;;;2.65;;
21030;SDS011;61072;47.808;7.636;2023-08-17T14:11:02;7.97;;;2.55;;
21030;SDS011;61072;47.808;7.636;2023-08-17T14:13:29;6.45;;;2.50;;
21030;SDS011;61072;47.808;7.636;2023-08-17T14:15:56;6.53;;;2.17;;
21030;SDS011;61072;47.808;7.636;2023-08-17T14:18:24;8.88;;;2.70;;
21030;SDS011;61072;47.808;7.636;2023-08-17T14:20:51;8.15;;;2.30;;
21030;SDS011;61072;47.808;7.636;2023-08-17T14:23:18;7.20;;;2.20;;
21030;SDS011;61072;47.808;7.636;2023-08-17T14:25:45;11.13;;;2.78;;
21030;SDS011;61072;47.808;7.636;2023-08-17T14:28:11;7.78;;;2.58;;
21030;SDS011;61072;47.808;7.636;2023-08-17T14:30:38;9.35;;;2.97;;
21030;SDS011;61072;47.808;7.636;2023-08-17T14:33:05;5.40;;;1.90;;
21030;SDS011;61072;47.808;7.636;2023-08-17T14:35:32;8.45;;;3.03;;
21030;SDS011;61072;47.808;7.636;2023-08-17T14:37:59;8.38;;;2.28;;
21030;SDS011;61072;47.808;7.636;2023-08-17T14:40:27;4.47;;;2.03;;
21030;SDS011;61072;47.808;7.636;2023-08-17T14:42:54;5.63;;;2.67;;
21030;SDS011;61072;47.808;7.636;2023-08-17T14:45:21;9.50;;;2.83;;
21030;SDS011;61072;47.808;7.636;2023-08-17T14:47:48;9.02;;;2.50;;
21030;SDS011;61072;47.808;7.636;2023-08-17T14:50:14;5.38;;;2.28;;
21030;SDS011;61072;47.808;7.636;2023-08-17T14:52:41;4.07;;;2.00;;
21030;SDS011;61072;47.808;7.636;2023-08-17T14:55:08;7.80;;;2.88;;
21030;SDS011;61072;47.808;7.636;2023-08-17T14:57:35;5.80;;;2.53;;
21030;SDS011;61072;47.808;7.636;2023-08-17T15:00:02;3.35;;;2.38;;
21030;SDS011;61072;47.808;7.636;2023-08-17T15:02:30;5.85;;;2.75;;
21030;SDS011;61072;47.808;7.636;2023-08-17T15:04:57;8.10;;;2.10;;
21030;SDS011;61072;47.808;7.636;2023-08-17T15:07:23;6.05;;;2.35;;
21030;SDS011;61072;47.808;7.636;2023-08-17T15:09:51;8.18;;;2.53;;
21030;SDS011;61072;47.808;7.636;2023-08-17T15:12:19;5.30;;;2.47;;